createdAt,value
2023-04-21T00:29:46.656Z,11.80
2023-04-21T00:34:46.651Z,11.30
2023-04-21T01:04:47.031Z,17.80
2023-04-21T01:09:46.778Z,18.50
2023-04-21T01:19:46.942Z,19.60
2023-04-21T01:39:53.178Z,22.90
2023-04-21T01:44:48.518Z,23.20
2023-04-21T01:54:46.916Z,24.00
2023-04-21T02:09:46.974Z,25.30
2023-04-21T02:19:47.014Z,26.10
2023-04-21T02:24:47.679Z,26.10
2023-04-21T02:39:47.091Z,26.10
2023-04-21T02:44:47.089Z,26.10
2023-04-21T02:49:47.021Z,26.10
2023-04-21T02:54:47.051Z,26.10
2023-04-21T03:24:47.194Z,26.10
2023-04-21T03:29:47.135Z,26.10
2023-04-21T03:34:47.232Z,26.10
2023-04-21T03:39:47.474Z,26.10
2023-04-21T03:44:47.180Z,26.10
2023-04-21T03:59:47.238Z,26.10
2023-04-21T04:04:48.023Z,26.10
2023-04-21T04:09:47.230Z,26.10
2023-04-21T04:44:47.334Z,26.10
2023-04-21T04:54:47.387Z,26.10
2023-04-21T04:59:47.689Z,26.10
2023-04-21T05:09:47.399Z,26.10
2023-04-21T05:29:47.453Z,26.10
2023-04-21T05:34:47.445Z,26.10
2023-04-21T06:04:47.763Z,26.10
2023-04-21T06:09:50.342Z,26.10
2023-04-21T06:14:47.567Z,26.10
2023-04-21T06:19:52.063Z,26.10
2023-04-21T06:24:47.677Z,26.10
2023-04-21T06:34:47.622Z,26.10
2023-04-21T06:44:48.832Z,26.10
2023-04-21T06:49:47.613Z,26.10
2023-04-21T06:54:47.652Z,26.10
2023-04-21T06:59:47.716Z,26.10
2023-04-21T07:04:47.764Z,26.10
2023-04-21T07:14:47.744Z,26.10
2023-04-21T07:24:49.335Z,26.10
2023-04-21T07:29:47.809Z,26.10
2023-04-21T07:34:48.597Z,26.10
2023-04-21T07:39:47.802Z,26.10
2023-04-21T07:44:48.041Z,26.10
2023-04-21T07:54:48.038Z,26.10
2023-04-21T07:59:48.134Z,26.10
2023-04-21T08:04:47.958Z,26.10
2023-04-21T08:09:47.996Z,26.10
2023-04-21T08:14:48.523Z,26.10
2023-04-21T08:19:47.876Z,26.10
2023-04-21T08:24:47.956Z,26.10
2023-04-21T08:34:50.830Z,26.10
2023-04-21T08:39:49.955Z,25.60
2023-04-21T08:44:47.989Z,25.80
2023-04-21T08:54:51.817Z,23.10
2023-04-21T08:59:48.026Z,20.30
2023-04-21T09:09:52.682Z,19.00
2023-04-21T09:14:48.260Z,18.30
2023-04-21T09:19:48.041Z,18.20
2023-04-21T09:24:55.858Z,16.30
2023-04-21T09:29:48.217Z,16.90
2023-04-21T09:34:48.449Z,9.20
2023-04-21T09:40:03.656Z,11.30
2023-04-21T09:44:56.334Z,12.60
2023-04-21T09:49:51.503Z,12.10
2023-04-21T09:54:51.055Z,10.60
2023-04-21T09:59:53.284Z,9.10
2023-04-21T10:04:48.483Z,7.10
2023-04-21T10:09:53.564Z,5.90
2023-04-21T10:14:51.272Z,7.10
2023-04-21T10:19:51.022Z,5.60
2023-04-21T10:24:48.209Z,3.80
2023-04-21T10:29:56.581Z,24.30
2023-04-21T10:34:48.312Z,20.90
2023-04-21T10:39:53.654Z,20.10
2023-04-21T10:44:52.539Z,18.80
2023-04-21T10:49:48.863Z,13.70
2023-04-21T10:59:48.671Z,14.40
2023-04-21T11:04:51.584Z,12.40
2023-04-21T11:09:56.658Z,11.40
2023-04-21T11:14:48.432Z,14.70
2023-04-21T11:19:53.529Z,19.50
2023-04-21T11:24:50.734Z,19.80
2023-04-21T11:29:50.026Z,19.40
2023-04-21T11:34:48.529Z,19.40
2023-04-21T11:39:48.393Z,20.70
2023-04-21T11:44:48.505Z,21.00
2023-04-21T11:49:53.437Z,19.60
2023-04-21T11:54:53.401Z,19.90
2023-04-21T11:59:48.826Z,17.10
2023-04-21T12:05:01.306Z,12.20
2023-04-21T12:09:52.336Z,12.80
2023-04-21T12:14:49.129Z,10.40
2023-04-21T12:24:48.554Z,7.90
2023-04-21T12:29:48.688Z,7.20
2023-04-21T12:34:48.948Z,8.60
2023-04-21T12:39:48.538Z,11.20
2023-04-21T12:44:48.934Z,9.80
2023-04-21T12:49:48.581Z,9.50
2023-04-21T12:54:48.644Z,9.60
2023-04-21T12:59:48.749Z,7.20
2023-04-21T13:04:48.804Z,6.50
2023-04-21T13:09:49.002Z,5.50
2023-04-21T13:14:49.242Z,5.50
2023-04-21T13:24:48.664Z,7.20
2023-04-21T13:29:49.476Z,7.50
2023-04-21T13:34:48.758Z,4.10
2023-04-21T13:39:48.836Z,4.90
2023-04-21T13:44:48.803Z,2.60
2023-04-21T13:49:50.458Z,5.10
2023-04-21T13:59:48.824Z,4.60
2023-04-21T14:04:49.565Z,4.50
2023-04-21T14:09:50.664Z,2.80
2023-04-21T14:14:48.865Z,26.30
2023-04-21T14:19:49.149Z,3.80
2023-04-21T14:24:49.179Z,2.50
2023-04-21T14:29:48.967Z,26.50
2023-04-21T14:34:52.219Z,3.30
2023-04-21T14:39:48.960Z,5.30
2023-04-21T14:54:49.032Z,6.50
2023-04-21T14:59:50.325Z,4.80
2023-04-21T15:04:49.291Z,3.80
2023-04-21T15:09:49.856Z,4.30
2023-04-21T15:14:49.051Z,4.70
2023-04-21T15:19:49.177Z,5.20
2023-04-21T15:24:49.282Z,6.10
2023-04-21T15:29:49.003Z,7.00
2023-04-21T15:34:49.369Z,9.70
2023-04-21T15:44:50.368Z,9.30
2023-04-21T15:49:49.298Z,10.50
2023-04-21T15:59:49.277Z,14.70
2023-04-21T16:04:49.535Z,10.80
2023-04-21T16:09:49.284Z,10.80
2023-04-21T16:14:57.693Z,9.50
2023-04-21T16:19:50.230Z,8.20
2023-04-21T16:24:51.901Z,6.90
2023-04-21T16:29:49.271Z,7.40
2023-04-21T16:39:49.264Z,26.30
2023-04-21T16:44:49.855Z,10.40
2023-04-21T16:49:49.356Z,17.60
2023-04-21T16:54:49.541Z,19.80
2023-04-21T16:59:51.855Z,22.30
2023-04-21T17:04:49.673Z,23.00
2023-04-21T17:09:50.220Z,23.40
2023-04-21T17:14:49.490Z,23.30
2023-04-21T17:19:49.402Z,21.80
2023-04-21T17:29:50.068Z,21.40
2023-04-21T17:34:49.351Z,20.80
2023-04-21T17:39:49.510Z,21.30
2023-04-21T17:44:49.619Z,21.10
2023-04-21T17:49:49.413Z,19.90
2023-04-21T18:09:50.455Z,21.00
2023-04-21T18:14:49.468Z,20.30
2023-04-21T18:19:49.558Z,19.90
2023-04-21T18:24:49.765Z,19.50
2023-04-21T18:29:49.784Z,19.90
2023-04-21T18:34:49.564Z,19.50
2023-04-21T18:39:49.570Z,19.60
2023-04-21T18:49:50.504Z,20.30
2023-04-21T18:54:50.020Z,20.30
2023-04-21T18:59:50.538Z,20.00
2023-04-21T19:09:51.065Z,20.70
2023-04-21T19:19:50.080Z,22.60
2023-04-21T19:24:50.408Z,21.50
2023-04-21T19:34:49.753Z,20.20
2023-04-21T19:39:49.705Z,21.80
2023-04-21T19:44:49.813Z,23.10
2023-04-21T19:49:49.746Z,21.00
2023-04-21T19:54:49.982Z,22.60
2023-04-21T20:04:49.900Z,21.50
2023-04-21T20:14:50.851Z,18.30
2023-04-21T20:19:49.818Z,17.50
2023-04-21T20:24:51.027Z,20.20
2023-04-21T20:34:52.328Z,19.50
2023-04-21T20:39:49.872Z,20.50
2023-04-21T20:44:50.147Z,20.80
2023-04-21T20:49:50.103Z,21.00
2023-04-21T20:54:49.985Z,21.00
2023-04-21T20:59:49.874Z,21.80
2023-04-21T21:04:50.004Z,21.30
2023-04-21T21:09:49.942Z,23.20
2023-04-21T21:14:49.975Z,21.90
2023-04-21T21:19:50.002Z,22.30
2023-04-21T21:24:49.961Z,23.50
2023-04-21T21:29:50.030Z,24.80
2023-04-21T21:39:50.034Z,21.50
2023-04-21T21:54:51.583Z,21.20
2023-04-21T22:04:50.272Z,20.90
2023-04-21T22:09:50.191Z,21.90
2023-04-21T22:14:50.339Z,20.20
2023-04-21T22:24:50.109Z,20.20
2023-04-21T22:29:50.363Z,20.20
2023-04-21T22:34:50.154Z,20.00
2023-04-21T22:39:50.229Z,20.10
2023-04-21T22:44:50.403Z,21.20
2023-04-21T22:49:50.392Z,20.10
2023-04-21T22:59:50.766Z,20.50
2023-04-21T23:04:50.203Z,21.90
2023-04-21T23:14:50.668Z,21.50
2023-04-21T23:29:50.277Z,21.30
2023-04-21T23:34:50.637Z,20.90
2023-04-21T23:39:50.323Z,21.80
2023-04-21T23:44:50.472Z,21.50
2023-04-21T23:49:50.366Z,22.30
2023-04-21T23:54:50.673Z,25.10
2023-04-21T23:59:50.485Z,24.50
